TimeCST,TemperatureF,Dew PointF,Humidity,Sea Level PressureIn,VisibilityMPH,Wind Direction,Wind SpeedMPH,Gust SpeedMPH,PrecipitationIn,Events,Conditions,WindDirDegrees,DateUTC
12:15 AM,26.6,14.0,59,30.05,10.0,East,9.2,-,N/A,,Clear,80,2013-02-11 06:15:00
12:35 AM,28.4,15.8,59,30.05,10.0,East,10.4,-,N/A,,Clear,80,2013-02-11 06:35:00
12:55 AM,26.6,14.0,59,30.06,10.0,ENE,9.2,-,N/A,,Clear,70,2013-02-11 06:55:00
1:15 AM,26.6,15.8,64,30.06,10.0,ENE,10.4,-,N/A,,Clear,70,2013-02-11 07:15:00
1:35 AM,26.6,14.0,59,30.06,10.0,ENE,10.4,-,N/A,,Clear,70,2013-02-11 07:35:00
1:55 AM,26.6,15.8,64,30.07,10.0,ENE,10.4,-,N/A,,Clear,60,2013-02-11 07:55:00
2:15 AM,26.6,17.6,69,30.07,10.0,ENE,10.4,-,N/A,,Clear,60,2013-02-11 08:15:00
2:35 AM,26.6,17.6,69,30.07,10.0,NE,9.2,-,N/A,,Clear,50,2013-02-11 08:35:00
2:55 AM,26.6,17.6,69,30.08,10.0,NE,9.2,-,N/A,,Clear,50,2013-02-11 08:55:00
3:15 AM,26.6,17.6,69,30.09,10.0,NE,11.5,-,N/A,,Clear,50,2013-02-11 09:15:00
3:35 AM,26.6,17.6,69,30.09,10.0,ENE,8.1,-,N/A,,Clear,60,2013-02-11 09:35:00
3:55 AM,24.8,17.6,74,30.09,10.0,ENE,9.2,-,N/A,,Clear,60,2013-02-11 09:55:00
4:15 AM,23.0,17.6,80,30.09,10.0,NE,10.4,-,N/A,,Clear,50,2013-02-11 10:15:00
4:35 AM,23.0,17.6,80,30.09,10.0,NE,9.2,-,N/A,,Clear,50,2013-02-11 10:35:00
4:55 AM,23.0,17.6,80,30.09,10.0,ENE,9.2,-,N/A,,Clear,60,2013-02-11 10:55:00
5:15 AM,21.2,17.6,86,30.10,10.0,ENE,10.4,-,N/A,,Clear,60,2013-02-11 11:15:00
5:55 AM,23.0,17.6,80,30.11,10.0,ENE,9.2,-,N/A,,Clear,60,2013-02-11 11:55:00
6:15 AM,21.2,17.6,86,30.11,10.0,ENE,9.2,-,N/A,,Clear,60,2013-02-11 12:15:00
6:35 AM,21.2,17.6,86,30.11,10.0,ENE,8.1,-,N/A,,Clear,60,2013-02-11 12:35:00
6:55 AM,19.4,15.8,86,30.12,10.0,East,5.8,-,N/A,,Clear,80,2013-02-11 12:55:00
7:15 AM,21.2,17.6,86,30.12,10.0,East,5.8,-,N/A,,Clear,100,2013-02-11 13:15:00
7:35 AM,23.0,19.4,86,30.12,10.0,East,8.1,-,N/A,,Clear,100,2013-02-11 13:35:00
7:55 AM,23.0,17.6,80,30.13,10.0,ESE,4.6,-,N/A,,Clear,110,2013-02-11 13:55:00
8:15 AM,21.2,17.6,86,30.15,10.0,ESE,3.5,-,N/A,,Clear,110,2013-02-11 14:15:00
8:35 AM,24.8,19.4,80,30.16,10.0,Calm,Calm,-,N/A,,Clear,0,2013-02-11 14:35:00
8:55 AM,28.4,21.2,74,30.16,10.0,ENE,4.6,-,N/A,,Clear,70,2013-02-11 14:55:00
9:15 AM,30.2,21.2,69,30.17,10.0,ENE,5.8,-,N/A,,Clear,60,2013-02-11 15:15:00
9:35 AM,32.0,23.0,69,30.17,10.0,ENE,6.9,-,N/A,,Clear,70,2013-02-11 15:35:00
9:55 AM,32.0,21.2,64,30.18,10.0,NE,6.9,-,N/A,,Clear,50,2013-02-11 15:55:00
10:15 AM,32.0,23.0,69,30.18,10.0,NE,9.2,-,N/A,,Clear,50,2013-02-11 16:15:00
10:35 AM,32.0,21.2,64,30.18,10.0,East,6.9,-,N/A,,Clear,90,2013-02-11 16:35:00
10:55 AM,33.8,21.2,60,30.18,10.0,ENE,6.9,-,N/A,,Clear,70,2013-02-11 16:55:00
11:15 AM,35.6,21.2,56,30.18,10.0,East,4.6,-,N/A,,Clear,80,2013-02-11 17:15:00
11:35 AM,35.6,21.2,56,30.17,10.0,ENE,9.2,-,N/A,,Clear,60,2013-02-11 17:35:00
11:55 AM,37.4,21.2,52,30.16,10.0,ENE,4.6,-,N/A,,Clear,70,2013-02-11 17:55:00
12:15 PM,39.2,19.4,45,30.15,10.0,East,10.4,-,N/A,,Clear,90,2013-02-11 18:15:00
12:35 PM,39.2,21.2,49,30.14,10.0,East,10.4,-,N/A,,Clear,90,2013-02-11 18:35:00
12:55 PM,41.0,19.4,42,30.12,10.0,East,8.1,-,N/A,,Clear,80,2013-02-11 18:55:00
1:15 PM,41.0,19.4,42,30.11,10.0,ESE,9.2,-,N/A,,Clear,120,2013-02-11 19:15:00
1:35 PM,42.8,19.4,39,30.09,10.0,SE,9.2,-,N/A,,Clear,130,2013-02-11 19:35:00
1:55 PM,42.8,19.4,39,30.08,10.0,ESE,6.9,-,N/A,,Clear,120,2013-02-11 19:55:00
2:15 PM,42.8,19.4,39,30.07,10.0,SE,11.5,16.1,N/A,,Clear,130,2013-02-11 20:15:00
2:35 PM,44.6,19.4,37,30.06,10.0,SE,6.9,-,N/A,,Clear,140,2013-02-11 20:35:00
2:55 PM,44.6,17.6,34,30.05,10.0,East,5.8,-,N/A,,Clear,100,2013-02-11 20:55:00
3:15 PM,44.6,17.6,34,30.04,10.0,SSE,10.4,-,N/A,,Clear,150,2013-02-11 21:15:00
3:35 PM,44.6,17.6,34,30.04,10.0,ESE,5.8,-,N/A,,Clear,120,2013-02-11 21:35:00
4:55 PM,44.6,17.6,34,30.02,10.0,SE,8.1,-,N/A,,Clear,130,2013-02-11 22:55:00
5:15 PM,44.6,17.6,34,30.02,10.0,SE,9.2,-,N/A,,Clear,130,2013-02-11 23:15:00
5:35 PM,42.8,17.6,36,30.02,10.0,ESE,12.7,-,N/A,,Clear,120,2013-02-11 23:35:00
5:55 PM,42.8,17.6,36,30.01,10.0,SE,11.5,-,N/A,,Clear,140,2013-02-11 23:55:00
6:15 PM,41.0,17.6,39,30.02,10.0,SE,9.2,-,N/A,,Scattered Clouds,140,2013-02-12 00:15:00
6:35 PM,39.2,17.6,42,30.03,10.0,SE,10.4,-,N/A,,Mostly Cloudy,130,2013-02-12 00:35:00
6:55 PM,37.4,19.4,48,30.03,10.0,SE,9.2,-,N/A,,Overcast,140,2013-02-12 00:55:00
7:15 PM,37.4,19.4,48,30.05,10.0,SSE,9.2,-,N/A,,Overcast,150,2013-02-12 01:15:00
7:35 PM,37.4,21.2,52,30.05,10.0,SE,10.4,-,N/A,,Overcast,140,2013-02-12 01:35:00
7:55 PM,37.4,21.2,52,30.06,10.0,SE,9.2,-,N/A,,Overcast,140,2013-02-12 01:55:00
8:15 PM,37.4,21.2,52,30.06,10.0,SSE,12.7,17.3,N/A,,Overcast,150,2013-02-12 02:15:00
8:35 PM,37.4,21.2,52,30.06,10.0,SE,11.5,-,N/A,,Overcast,140,2013-02-12 02:35:00
8:55 PM,37.4,21.2,52,30.06,10.0,SE,11.5,-,N/A,,Overcast,130,2013-02-12 02:55:00
9:15 PM,35.6,21.2,56,30.05,10.0,ESE,10.4,-,N/A,,Overcast,120,2013-02-12 03:15:00
9:35 PM,33.8,21.2,60,30.05,10.0,ESE,9.2,-,N/A,,Mostly Cloudy,110,2013-02-12 03:35:00
9:55 PM,32.0,21.2,64,30.04,10.0,East,9.2,-,N/A,,Clear,100,2013-02-12 03:55:00
10:15 PM,32.0,21.2,64,30.03,10.0,East,9.2,-,N/A,,Scattered Clouds,100,2013-02-12 04:15:00
10:35 PM,32.0,21.2,64,30.02,10.0,East,9.2,-,N/A,,Scattered Clouds,100,2013-02-12 04:35:00
10:55 PM,32.0,21.2,64,30.01,10.0,ESE,10.4,-,N/A,,Clear,110,2013-02-12 04:55:00
11:15 PM,32.0,21.2,64,30.02,10.0,ESE,10.4,-,N/A,,Mostly Cloudy,120,2013-02-12 05:15:00
11:35 PM,33.8,21.2,60,30.05,10.0,North,3.5,-,N/A,,Overcast,10,2013-02-12 05:35:00
11:55 PM,33.8,21.2,60,30.05,10.0,East,4.6,-,N/A,,Overcast,90,2013-02-12 05:55:00